Terminal Aerodrome Forecast
Issued by NWS Cleveland, OH

Home | Current Version | Previous Version | Graphics & Text | Print | Product List | Glossary On
Versions: 1 2 3 4 5 6 7 8 9 10 11 12 13 14
625
FTUS41 KCLE 182321
TAFCAK
TAF
KCAK 182321Z 1900/1924 00000KT P6SM BKN200
     FM190600 VRB03KT 5SM BR SCT120
      TEMPO 1909/1913 2SM BR
     FM191400 15004KT P6SM BKN120
     FM191600 17004KT P6SM BKN045=

USA.gov is the U.S. government's official web portal to all federal, state and local government web resources and services.